Time;durP1;ratioP1;P1;durP2;ratioP2;P2;SDS_P1;SDS_P2;PMS_P1;PMS_P2;Temp;Humidity;BMP_temperature;BMP_pressure;BME280_temperature;BME280_humidity;BME280_pressure;Samples;Min_cycle;Max_cycle;Signal;HPM_P1;HPM_P2
2022/07/11 00:02:24;;;;;;;3.47;2.70;;;;;;;19.25;55.42;98727.78;5097190;28;20047;-93
2022/07/11 00:04:49;;;;;;;3.67;2.70;;;;;;;19.17;55.38;98725.59;5102056;28;20040;-93
2022/07/11 00:07:16;;;;;;;3.83;2.90;;;;;;;19.22;55.74;98745.03;5100000;28;20036;-91
2022/07/11 00:09:43;;;;;;;3.95;3.00;;;;;;;19.29;54.60;98732.88;5103138;28;20409;-91
2022/07/11 00:12:10;;;;;;;4.45;2.60;;;;;;;19.17;55.02;98711.22;5103160;28;20067;-92
2022/07/11 00:14:39;;;;;;;4.65;2.88;;;;;;;19.25;55.57;98727.78;5103949;28;20046;-92
2022/07/11 00:17:05;;;;;;;5.57;3.00;;;;;;;19.09;56.45;98720.69;5105526;28;20098;-90
2022/07/11 00:19:31;;;;;;;3.67;2.75;;;;;;;19.12;56.12;98718.75;5103954;28;20102;-92
2022/07/11 00:21:56;;;;;;;4.38;2.85;;;;;;;19.25;55.73;98733.19;5102874;28;20040;-90
2022/07/11 00:24:24;;;;;;;3.83;2.80;;;;;;;19.27;55.48;98725.88;5101730;28;20113;-93
2022/07/11 00:26:52;;;;;;;3.05;2.50;;;;;;;19.47;54.18;98729.97;5100619;28;20051;-94
2022/07/11 00:29:17;;;;;;;4.05;2.72;;;;;;;19.72;53.41;98723.91;5104165;28;20138;-91
2022/07/11 00:31:44;;;;;;;2.80;2.40;;;;;;;19.65;52.89;98693.75;5103214;28;20754;-91
2022/07/11 00:34:09;;;;;;;3.65;2.63;;;;;;;19.90;53.39;98730.78;5103353;28;20028;-92
2022/07/11 00:36:36;;;;;;;3.63;2.70;;;;;;;19.83;53.97;98713.28;5102438;28;20055;-91
2022/07/11 00:39:03;;;;;;;4.50;2.72;;;;;;;19.82;54.94;98724.16;5099549;28;20040;-93
2022/07/11 00:41:28;;;;;;;3.45;2.72;;;;;;;19.78;55.35;98730.72;5102881;28;20048;-91
2022/07/11 00:43:58;;;;;;;3.22;2.53;;;;;;;19.59;55.75;98717.56;5104395;28;20055;-92
2022/07/11 00:46:25;;;;;;;6.10;2.80;;;;;;;19.45;57.02;98735.50;5102925;28;20044;-90
2022/07/11 00:48:51;;;;;;;3.72;2.63;;;;;;;19.22;57.19;98712.69;5100959;28;20070;-91
2022/07/11 00:51:20;;;;;;;3.58;2.80;;;;;;;19.11;57.62;98714.34;5103312;28;20145;-91
2022/07/11 00:53:49;;;;;;;3.83;2.80;;;;;;;19.05;57.89;98713.75;5107266;28;20440;-90
2022/07/11 00:56:15;;;;;;;4.00;2.95;;;;;;;18.92;57.76;98711.91;5105017;28;20070;-90
2022/07/11 00:58:42;;;;;;;5.57;2.90;;;;;;;18.96;57.42;98727.78;5102194;28;20085;-90
2022/07/11 01:01:09;;;;;;;4.60;2.78;;;;;;;18.92;57.18;98738.88;5102601;28;20043;-90
2022/07/11 01:03:35;;;;;;;3.95;2.45;;;;;;;18.70;58.21;98715.03;5095842;28;20115;-90
2022/07/11 01:06:02;;;;;;;4.78;2.30;;;;;;;18.52;58.77;98712.50;5090735;28;20067;-91
2022/07/11 01:08:31;;;;;;;3.58;2.70;;;;;;;18.51;58.53;98717.97;5086489;28;20040;-90
2022/07/11 01:11:00;;;;;;;3.88;2.50;;;;;;;18.34;58.85;98705.53;5092214;28;20040;-92
2022/07/11 01:13:25;;;;;;;3.90;2.38;;;;;;;18.27;58.75;98705.88;5088643;28;20049;-91
2022/07/11 01:16:06;;;;;;;5.95;2.60;;;;;;;18.39;58.85;98730.34;5089363;28;20036;-93
2022/07/11 01:18:33;;;;;;;4.20;2.53;;;;;;;18.39;59.13;98733.91;5091011;28;20048;-92
2022/07/11 01:20:59;;;;;;;4.50;2.50;;;;;;;18.18;59.23;98706.44;5090787;28;20039;-91
2022/07/11 01:23:26;;;;;;;4.10;2.80;;;;;;;18.17;59.23;98711.91;5089442;28;20044;-90
2022/07/11 01:25:53;;;;;;;4.57;3.28;;;;;;;18.22;59.34;98725.97;5089148;28;20045;-91
2022/07/11 01:28:18;;;;;;;4.53;2.60;;;;;;;18.04;59.52;98701.88;5089196;28;20071;-91
2022/07/11 01:30:45;;;;;;;3.97;2.65;;;;;;;17.97;59.62;98697.78;5090808;28;20032;-91
2022/07/11 01:33:10;;;;;;;3.53;2.65;;;;;;;18.05;59.90;98722.44;5089720;28;20419;-91
2022/07/11 01:35:36;;;;;;;5.75;3.05;;;;;;;18.09;59.83;98717.75;5092710;28;20051;-89
2022/07/11 01:38:05;;;;;;;4.28;2.85;;;;;;;17.96;59.69;98704.16;5091275;28;20053;-91
2022/07/11 01:40:41;;;;;;;4.60;2.95;;;;;;;17.99;59.96;98703.97;5086822;28;20029;-91
2022/07/11 01:43:07;;;;;;;3.47;2.60;;;;;;;17.90;59.73;98693.75;5086029;28;20040;-91
2022/07/11 01:45:33;;;;;;;6.05;3.20;;;;;;;17.86;60.05;98697.56;5092623;28;20082;-92
2022/07/11 01:47:59;;;;;;;4.38;2.70;;;;;;;17.96;60.40;98714.91;5090850;28;20040;-91
2022/07/11 01:50:24;;;;;;;4.43;2.55;;;;;;;18.04;60.16;98731.47;5089233;28;21464;-91
2022/07/11 01:52:50;;;;;;;4.30;2.70;;;;;;;18.02;60.13;98721.75;5087247;28;20036;-92
2022/07/11 01:55:16;;;;;;;4.15;2.78;;;;;;;17.88;61.00;98700.16;5089467;28;20036;-91
2022/07/11 01:57:43;;;;;;;4.43;2.83;;;;;;;17.90;61.09;98706.34;5089363;28;20071;-92
2022/07/11 02:00:11;;;;;;;3.85;2.88;;;;;;;17.99;61.05;98724.63;5088132;28;20036;-91
2022/07/11 02:02:37;;;;;;;5.45;2.75;;;;;;;17.83;61.84;98703.13;5090009;28;20039;-92
2022/07/11 02:05:03;;;;;;;4.38;2.78;;;;;;;17.92;61.60;98725.94;5091151;28;20398;-92
2022/07/11 02:10:29;;;;;;;3.50;2.75;;;;;;;17.86;61.48;98733.38;5092250;27;20378;-94
2022/07/11 02:12:55;;;;;;;6.22;3.10;;;;;;;17.85;62.09;98726.28;5091925;28;20044;-91
2022/07/11 02:15:21;;;;;;;7.40;3.92;;;;;;;17.88;62.22;98741.38;5092549;28;20053;-91
2022/07/11 02:17:46;;;;;;;4.50;3.25;;;;;;;17.78;62.77;98740.13;5093413;28;20044;-92
2022/07/11 02:20:12;;;;;;;5.05;3.30;;;;;;;17.72;63.44;98743.16;5093310;28;20044;-91
2022/07/11 02:22:38;;;;;;;4.60;3.88;;;;;;;17.70;63.26;98743.28;5092759;28;20040;-91
2022/07/11 02:25:05;;;;;;;5.45;3.13;;;;;;;17.52;64.62;98722.78;5090223;28;20074;-90
2022/07/11 02:27:32;;;;;;;4.85;3.13;;;;;;;17.42;64.51;98720.63;5093715;28;20048;-90
2022/07/11 02:29:58;;;;;;;4.30;3.08;;;;;;;17.44;63.86;98729.47;5092178;28;20044;-91
2022/07/11 02:32:26;;;;;;;4.28;2.88;;;;;;;17.52;63.55;98739.81;5093547;28;21051;-91
2022/07/11 02:34:53;;;;;;;4.03;2.85;;;;;;;17.39;63.59;98731.56;5091535;28;20047;-91
2022/07/11 02:37:19;;;;;;;5.05;2.80;;;;;;;17.40;63.46;98735.09;5091933;28;20040;-91
2022/07/11 02:39:45;;;;;;;4.45;3.10;;;;;;;17.52;63.38;98755.03;5092264;28;20086;-90
2022/07/11 02:42:11;;;;;;;4.22;3.00;;;;;;;17.29;63.74;98724.09;5092006;28;20452;-94
2022/07/11 02:44:38;;;;;;;6.90;3.00;;;;;;;17.44;63.80;98745.59;5092952;28;20516;-90
2022/07/11 02:47:04;;;;;;;4.85;2.83;;;;;;;17.42;63.99;98752.03;5092134;28;20067;-93
2022/07/11 02:49:30;;;;;;;4.30;3.10;;;;;;;17.33;64.30;98737.25;5093048;28;20036;-92
2022/07/11 02:51:56;;;;;;;4.75;3.00;;;;;;;17.38;64.64;98756.69;5090746;28;20132;-91
2022/07/11 02:54:22;;;;;;;4.32;3.10;;;;;;;17.28;64.60;98742.00;5092202;28;20051;-92
2022/07/11 02:56:48;;;;;;;5.10;3.10;;;;;;;17.16;64.52;98727.44;5092612;28;20131;-91
2022/07/11 02:59:13;;;;;;;4.90;2.90;;;;;;;17.18;64.91;98738.13;5092477;28;20032;-91
2022/07/11 03:01:41;;;;;;;4.65;3.47;;;;;;;17.04;65.24;98731.69;5092029;28;20044;-92
2022/07/11 03:04:07;;;;;;;4.80;3.10;;;;;;;17.02;64.66;98730.88;5092690;28;20504;-92
2022/07/11 03:06:32;;;;;;;4.75;2.90;;;;;;;17.11;64.95;98742.06;5090436;28;20044;-90
2022/07/11 03:08:58;;;;;;;4.63;3.10;;;;;;;17.04;65.29;98737.03;5091549;28;20151;-92
2022/07/11 03:11:24;;;;;;;5.22;3.20;;;;;;;17.04;65.00;98741.53;5091314;28;20040;-91
2022/07/11 03:13:50;;;;;;;4.28;3.15;;;;;;;16.92;66.38;98734.16;5091407;28;20157;-92
2022/07/11 03:16:16;;;;;;;4.40;3.50;;;;;;;17.07;66.72;98764.66;5092033;28;20501;-91
2022/07/11 03:18:43;;;;;;;4.30;3.10;;;;;;;16.86;67.04;98739.84;5091687;28;20038;-92
2022/07/11 03:21:09;;;;;;;4.38;3.28;;;;;;;16.84;66.34;98742.59;5080097;28;20087;-91
2022/07/11 03:23:35;;;;;;;5.05;3.30;;;;;;;16.70;66.75;98721.81;5078535;28;20032;-92
2022/07/11 03:26:02;;;;;;;6.05;3.63;;;;;;;16.87;66.65;98755.84;5077437;28;20060;-89
2022/07/11 03:28:28;;;;;;;5.53;3.40;;;;;;;16.77;67.11;98755.44;5077320;28;20044;-91
2022/07/11 03:30:54;;;;;;;3.97;3.22;;;;;;;16.73;67.28;98753.88;5078513;28;20098;-91
2022/07/11 03:33:20;;;;;;;5.55;3.00;;;;;;;16.78;66.92;98767.06;5077704;28;20041;-94
2022/07/11 03:35:48;;;;;;;4.57;3.20;;;;;;;16.51;67.25;98740.72;5077950;28;20048;-90
2022/07/11 03:38:18;;;;;;;4.78;3.35;;;;;;;16.66;67.12;98765.03;5078110;28;20457;-91
2022/07/11 03:40:45;;;;;;;4.53;3.00;;;;;;;16.50;67.05;98736.25;5078110;28;20051;-90
2022/07/11 03:43:11;;;;;;;4.55;3.20;;;;;;;16.55;67.14;98744.13;5079040;28;20098;-90
2022/07/11 03:45:37;;;;;;;5.15;3.35;;;;;;;16.59;67.19;98757.28;5077999;28;20457;-90
2022/07/11 03:48:03;;;;;;;4.78;3.58;;;;;;;16.52;66.58;98747.78;5076082;28;20044;-89
2022/07/11 03:50:29;;;;;;;5.57;3.28;;;;;;;16.58;66.95;98773.47;5076220;28;20048;-92
2022/07/11 03:52:57;;;;;;;5.10;3.58;;;;;;;16.54;66.62;98743.22;5075322;28;20127;-90
2022/07/11 03:55:22;;;;;;;5.13;3.28;;;;;;;16.67;67.27;98775.66;5076066;28;20398;-91
2022/07/11 03:57:48;;;;;;;6.97;3.65;;;;;;;16.59;66.85;98757.28;5075265;28;20032;-92
2022/07/11 04:00:14;;;;;;;5.30;3.78;;;;;;;16.68;67.37;98771.19;5075596;28;20120;-93
2022/07/11 04:02:40;;;;;;;5.75;3.63;;;;;;;16.71;67.20;98773.69;5074684;28;20044;-92
2022/07/11 04:05:06;;;;;;;6.97;3.80;;;;;;;16.53;67.96;98749.56;5076046;28;20040;-92
2022/07/11 04:07:32;;;;;;;6.30;3.80;;;;;;;16.72;67.74;98767.38;5076899;28;20036;-92
2022/07/11 04:09:59;;;;;;;5.18;3.47;;;;;;;16.62;67.90;98757.13;5077205;28;20161;-91
2022/07/11 04:12:25;;;;;;;5.68;3.60;;;;;;;16.71;67.51;98763.81;5078315;28;20040;-91
2022/07/11 04:14:51;;;;;;;6.28;3.67;;;;;;;16.83;67.19;98776.66;5075568;28;20826;-92
2022/07/11 04:17:17;;;;;;;6.25;3.78;;;;;;;16.90;67.56;98787.94;5077800;28;20048;-90
2022/07/11 04:19:43;;;;;;;6.03;3.80;;;;;;;16.70;67.82;98755.84;5078337;28;20040;-90
2022/07/11 04:22:09;;;;;;;4.85;3.50;;;;;;;16.83;68.46;98775.78;5077082;28;20131;-89
2022/07/11 04:24:35;;;;;;;6.68;3.80;;;;;;;16.78;67.95;98781.34;5076189;28;20108;-91
2022/07/11 04:27:03;;;;;;;6.15;3.75;;;;;;;16.81;68.64;98775.88;5076375;28;20111;-90
2022/07/11 04:29:29;;;;;;;6.00;3.67;;;;;;;16.91;68.90;98786.97;5077018;28;20162;-89
2022/07/11 04:31:55;;;;;;;4.93;3.67;;;;;;;16.86;69.01;98781.00;5069140;28;21568;-91
2022/07/11 04:34:21;;;;;;;4.90;3.75;;;;;;;16.77;68.93;98759.97;5068904;28;20048;-90
2022/07/11 04:36:46;;;;;;;4.95;3.80;;;;;;;16.83;68.46;98771.28;5077321;28;20052;-90
2022/07/11 04:39:13;;;;;;;5.40;3.65;;;;;;;16.87;69.04;98776.47;5076702;28;20028;-92
2022/07/11 04:41:39;;;;;;;5.05;3.50;;;;;;;16.97;68.89;98781.28;5076140;28;20064;-92
2022/07/11 04:44:07;;;;;;;4.68;3.40;;;;;;;16.98;68.78;98784.84;5075768;28;20079;-91
2022/07/11 04:46:33;;;;;;;6.87;3.70;;;;;;;17.06;68.76;98797.88;5075968;28;20045;-91
2022/07/11 04:48:59;;;;;;;6.97;3.97;;;;;;;17.08;69.37;98802.22;5077889;28;20123;-92
2022/07/11 04:51:25;;;;;;;5.55;3.60;;;;;;;17.16;68.75;98805.38;5079557;28;20067;-91
2022/07/11 04:53:51;;;;;;;5.50;3.80;;;;;;;17.02;68.35;98787.31;5078098;28;20055;-91
2022/07/11 04:56:17;;;;;;;8.27;4.28;;;;;;;17.08;68.14;98787.91;5075273;28;20043;-90
2022/07/11 04:58:44;;;;;;;5.55;4.03;;;;;;;17.31;68.46;98818.94;5075187;28;20054;-90
2022/07/11 05:01:11;;;;;;;5.82;4.00;;;;;;;17.32;68.19;98808.09;5075514;28;20053;-89
2022/07/11 05:03:37;;;;;;;5.80;3.90;;;;;;;17.44;68.40;98810.13;5075885;28;20119;-91
2022/07/11 05:06:04;;;;;;;6.80;4.38;;;;;;;17.73;67.94;98809.47;5075820;28;20068;-89
2022/07/11 05:08:30;;;;;;;6.40;4.30;;;;;;;18.30;65.92;98788.28;5075438;28;20053;-91
2022/07/11 05:10:56;;;;;;;8.25;4.05;;;;;;;19.11;63.30;98805.97;5076928;28;20033;-91
2022/07/11 05:13:22;;;;;;;8.90;4.43;;;;;;;19.58;61.24;98800.31;5076407;28;20075;-91
2022/07/11 05:15:48;;;;;;;6.00;4.20;;;;;;;20.11;59.78;98792.44;5074491;28;20033;-91
2022/07/11 05:18:16;;;;;;;6.07;3.75;;;;;;;20.37;58.74;98788.00;5075962;28;20032;-91
2022/07/11 05:20:42;;;;;;;6.28;4.05;;;;;;;20.96;57.17;98809.25;5074778;28;20051;-92
2022/07/11 05:23:07;;;;;;;5.75;4.00;;;;;;;21.04;54.25;98782.56;5073392;28;20135;-89
2022/07/11 05:25:33;;;;;;;8.07;4.53;;;;;;;21.33;54.50;98794.00;5074863;28;20527;-91
2022/07/11 05:27:59;;;;;;;9.95;4.50;;;;;;;21.64;53.64;98808.09;5075824;28;20051;-89
2022/07/11 05:30:25;;;;;;;10.07;4.53;;;;;;;21.76;52.64;98806.34;5074093;28;20040;-90
2022/07/11 05:32:51;;;;;;;9.63;4.35;;;;;;;21.74;52.70;98802.88;5075575;28;20032;-92
2022/07/11 05:35:18;;;;;;;6.53;4.70;;;;;;;22.09;52.42;98827.38;5076090;28;20055;-92
2022/07/11 05:37:44;;;;;;;12.75;4.40;;;;;;;22.24;51.21;98817.28;5075633;28;20120;-93
2022/07/11 05:40:10;;;;;;;8.82;4.40;;;;;;;22.30;50.65;98799.72;5076220;28;20040;-93
2022/07/11 05:42:36;;;;;;;6.10;3.80;;;;;;;22.46;50.70;98816.53;5074838;28;20048;-90
2022/07/11 05:45:02;;;;;;;6.97;4.25;;;;;;;22.42;50.52;98793.34;5074295;28;20041;-91
2022/07/11 05:47:28;;;;;;;7.70;4.45;;;;;;;22.54;50.46;98816.81;5075052;28;20098;-92
2022/07/11 05:49:54;;;;;;;6.10;4.28;;;;;;;22.64;50.47;98818.84;5073056;28;20037;-92
2022/07/11 05:52:21;;;;;;;7.95;4.30;;;;;;;22.67;50.50;98811.34;5072890;28;20506;-90
2022/07/11 05:54:47;;;;;;;8.90;4.53;;;;;;;22.69;50.08;98801.25;5073160;28;20055;-89
2022/07/11 05:57:13;;;;;;;6.50;3.90;;;;;;;22.90;49.60;98811.41;5072751;28;20513;-92
2022/07/11 05:59:39;;;;;;;8.90;4.05;;;;;;;22.94;49.31;98812.91;5072746;28;20394;-92
2022/07/11 06:02:06;;;;;;;4.60;3.50;;;;;;;22.95;48.91;98818.22;5072734;28;20036;-92
2022/07/11 06:04:32;;;;;;;4.53;2.85;;;;;;;22.77;48.24;98808.81;5072056;28;20090;-89
2022/07/11 06:06:58;;;;;;;4.45;3.30;;;;;;;22.85;47.34;98821.75;5074742;28;20037;-91
2022/07/11 06:09:25;;;;;;;6.15;3.55;;;;;;;21.98;50.38;98831.84;5073466;28;20049;-90
2022/07/11 06:11:51;;;;;;;6.35;3.60;;;;;;;22.23;50.63;98826.41;5073043;28;20039;-89
2022/07/11 06:14:17;;;;;;;4.47;3.10;;;;;;;22.49;48.81;98820.88;5073421;28;20029;-92
2022/07/11 06:16:43;;;;;;;5.45;3.20;;;;;;;22.22;49.11;98824.66;5072321;28;20037;-90
2022/07/11 06:19:09;;;;;;;4.47;3.58;;;;;;;22.07;48.89;98810.38;5072626;28;20039;-92
2022/07/11 06:21:35;;;;;;;5.55;3.53;;;;;;;22.18;48.08;98803.31;5072551;28;20090;-90
2022/07/11 06:24:01;;;;;;;9.57;3.45;;;;;;;22.24;48.38;98828.13;5073010;28;20036;-91
2022/07/11 06:26:28;;;;;;;5.35;3.20;;;;;;;22.04;49.72;98843.09;5073552;28;20044;-92
2022/07/11 06:28:55;;;;;;;5.07;3.30;;;;;;;21.95;49.01;98814.84;5070544;28;20827;-91
2022/07/11 06:31:21;;;;;;;4.80;3.40;;;;;;;22.16;49.04;98833.19;5073253;28;20149;-89
2022/07/11 06:33:54;;;;;;;4.25;3.10;;;;;;;22.48;48.10;98835.41;5072555;28;20070;-91
2022/07/11 06:36:21;;;;;;;7.65;3.08;;;;;;;22.27;47.81;98825.19;5072657;28;20047;-92
2022/07/11 06:38:46;;;;;;;5.55;3.35;;;;;;;22.07;48.41;98823.06;5073135;28;20052;-92
2022/07/11 06:41:12;;;;;;;7.88;3.92;;;;;;;22.38;48.15;98843.38;5072629;28;20413;-91
2022/07/11 06:43:39;;;;;;;6.10;3.13;;;;;;;22.69;48.78;98835.63;5073475;28;20048;-91
2022/07/11 06:46:05;;;;;;;5.05;3.30;;;;;;;23.03;46.99;98823.09;5072757;28;20045;-92
2022/07/11 06:48:31;;;;;;;5.22;3.20;;;;;;;22.84;47.67;98841.75;5072790;28;20390;-91
2022/07/11 06:51:00;;;;;;;4.85;3.25;;;;;;;23.21;47.34;98847.94;5072335;28;20048;-91
2022/07/11 06:53:26;;;;;;;6.35;3.03;;;;;;;23.19;46.15;98836.31;5071013;28;20502;-92
2022/07/11 06:55:52;;;;;;;5.38;3.35;;;;;;;22.81;46.76;98859.09;5073132;28;20032;-92
2022/07/11 07:01:17;;;;;;;5.40;3.42;;;;;;;22.74;48.36;98855.97;5151306;27;20384;-92
2022/07/11 07:03:43;;;;;;;6.35;3.30;;;;;;;23.25;46.88;98856.66;5145509;27;20044;-93
2022/07/11 07:06:09;;;;;;;4.55;3.13;;;;;;;23.81;45.45;98854.06;5145204;27;20035;-93
2022/07/11 07:08:35;;;;;;;6.40;3.30;;;;;;;24.16;44.97;98858.50;5143536;27;20055;-89
2022/07/11 07:11:01;;;;;;;8.10;3.38;;;;;;;24.50;43.80;98862.03;5146349;27;20043;-92
2022/07/11 07:13:29;;;;;;;7.53;3.33;;;;;;;24.62;42.81;98838.41;5149893;27;20041;-93
2022/07/11 07:15:55;;;;;;;6.55;3.38;;;;;;;24.51;43.77;98841.19;5146586;27;20042;-92
2022/07/11 07:18:22;;;;;;;5.35;3.55;;;;;;;24.47;42.95;98834.22;5145353;27;20284;-92
2022/07/11 07:20:48;;;;;;;7.80;3.45;;;;;;;24.74;43.92;98859.13;5149847;27;20556;-93
2022/07/11 07:23:14;;;;;;;5.07;3.40;;;;;;;24.99;42.65;98846.19;5149896;27;20043;-93
2022/07/11 07:25:39;;;;;;;6.28;3.15;;;;;;;25.25;41.89;98837.66;5143977;27;20045;-92
2022/07/11 07:28:05;;;;;;;6.80;3.47;;;;;;;25.16;41.35;98861.91;5140028;27;20050;-91
2022/07/11 07:30:47;;;;;;;7.10;3.17;;;;;;;25.34;41.43;98851.31;5144608;27;20396;-92
2022/07/11 07:33:13;;;;;;;6.78;3.28;;;;;;;25.64;41.15;98848.78;5141029;27;20074;-91
2022/07/11 07:35:40;;;;;;;5.18;3.28;;;;;;;25.79;40.04;98851.00;5140118;27;20495;-93
2022/07/11 07:38:06;;;;;;;5.00;3.08;;;;;;;25.99;38.72;98849.25;5143009;27;20554;-91
2022/07/11 07:40:31;;;;;;;6.22;3.40;;;;;;;25.79;39.13;98831.94;5139382;27;20046;-92
2022/07/11 07:42:57;;;;;;;4.78;2.90;;;;;;;26.06;38.50;98846.00;5139575;27;20039;-91
2022/07/11 07:45:23;;;;;;;5.13;3.20;;;;;;;26.03;38.07;98837.09;5144406;27;20122;-92
2022/07/11 07:47:49;;;;;;;4.20;2.97;;;;;;;25.98;37.72;98843.94;5141986;27;20392;-93
2022/07/11 07:50:15;;;;;;;4.90;2.92;;;;;;;26.03;38.98;98836.22;5142151;27;20716;-92
2022/07/11 07:52:43;;;;;;;4.95;3.22;;;;;;;26.20;38.97;98843.75;5147164;27;20055;-92
2022/07/11 07:55:09;;;;;;;5.63;3.35;;;;;;;26.46;38.51;98839.63;5147314;27;20137;-93
2022/07/11 07:57:34;;;;;;;5.35;3.25;;;;;;;26.72;37.76;98834.53;5140143;27;20039;-93
2022/07/11 08:03:05;;;;;;;5.13;3.00;;;;;;;27.12;37.28;98834.38;5052418;27;20407;-93
2022/07/11 08:05:31;;;;;;;4.95;3.00;;;;;;;27.29;36.36;98829.22;5052036;28;20410;-93
2022/07/11 08:07:57;;;;;;;5.22;3.13;;;;;;;27.42;36.51;98832.50;5053942;28;20527;-93
2022/07/11 08:10:22;;;;;;;6.05;3.20;;;;;;;27.57;35.89;98822.81;5055150;28;20045;-92
2022/07/11 08:12:48;;;;;;;4.80;3.17;;;;;;;27.36;36.90;98841.28;5052919;28;20053;-92
2022/07/11 08:15:14;;;;;;;5.63;3.05;;;;;;;27.54;36.27;98833.19;5053378;28;20071;-92
2022/07/11 08:17:41;;;;;;;4.47;3.30;;;;;;;26.92;37.00;98827.22;5052931;28;20090;-93
2022/07/11 08:20:09;;;;;;;5.28;3.20;;;;;;;26.47;37.55;98822.28;5050195;28;20041;-93
2022/07/11 08:22:35;;;;;;;7.78;3.58;;;;;;;26.38;37.67;98813.09;5057009;28;21672;-92
2022/07/11 08:25:01;;;;;;;5.07;3.10;;;;;;;26.86;38.64;98835.97;5056000;28;20132;-92
2022/07/11 08:27:27;;;;;;;5.63;2.90;;;;;;;27.18;37.26;98824.75;5056924;28;20406;-92
2022/07/11 08:29:53;;;;;;;4.70;3.20;;;;;;;27.49;36.20;98813.66;5055231;28;20045;-93
2022/07/11 08:32:19;;;;;;;6.22;3.20;;;;;;;27.72;35.56;98816.91;5053430;28;20041;-94
2022/07/11 08:34:45;;;;;;;6.47;3.20;;;;;;;27.86;35.85;98821.88;5052881;28;20066;-93
2022/07/11 08:37:12;;;;;;;5.60;3.10;;;;;;;28.00;36.53;98820.56;5051723;28;20033;-91
2022/07/11 08:39:38;;;;;;;3.85;3.08;;;;;;;27.97;34.99;98818.09;5052750;28;20515;-94
2022/07/11 08:42:04;;;;;;;10.93;3.38;;;;;;;28.06;34.81;98826.28;5053023;28;20128;-91
2022/07/11 08:44:30;;;;;;;5.47;3.22;;;;;;;27.76;35.10;98810.97;5055011;28;20037;-92
2022/07/11 08:46:57;;;;;;;6.72;3.47;;;;;;;27.53;36.08;98815.09;5055437;28;20060;-92
2022/07/11 08:49:24;;;;;;;4.40;3.53;;;;;;;26.69;37.43;98800.22;5054557;28;20045;-94
2022/07/11 08:51:51;;;;;;;6.10;3.38;;;;;;;26.87;36.97;98802.22;5052694;28;20091;-91
2022/07/11 08:54:18;;;;;;;6.95;3.33;;;;;;;27.00;36.55;98800.03;5051419;28;20044;-91
2022/07/11 08:56:45;;;;;;;5.25;3.40;;;;;;;27.35;37.02;98809.53;5052063;28;20037;-93
2022/07/11 08:59:14;;;;;;;6.70;3.50;;;;;;;27.64;35.62;98791.16;5051982;28;20495;-92
2022/07/11 09:01:44;;;;;;;4.65;3.17;;;;;;;28.03;35.39;98804.69;5054134;28;20527;-92
2022/07/11 09:04:13;;;;;;;4.32;3.15;;;;;;;28.33;35.13;98805.38;5035596;28;20041;-94
2022/07/11 09:06:39;;;;;;;5.75;3.40;;;;;;;28.66;34.66;98803.03;5029896;28;20072;-93
2022/07/11 09:09:05;;;;;;;10.07;3.50;;;;;;;29.00;33.56;98794.94;5034624;28;21490;-92
2022/07/11 09:11:49;;;;;;;6.38;3.40;;;;;;;29.09;33.24;98815.06;5032502;28;20048;-93
2022/07/11 09:14:22;;;;;;;7.07;3.35;;;;;;;28.92;32.85;98807.72;5015764;28;21031;-94
2022/07/11 09:16:52;;;;;;;3.72;3.22;;;;;;;28.77;33.95;98812.88;5019132;28;20042;-92
2022/07/11 09:19:23;;;;;;;5.72;2.97;;;;;;;29.06;33.60;98798.91;5020508;28;20065;-92
2022/07/11 09:25:41;;;;;;;5.80;3.15;;;;;;;29.57;32.24;98804.63;5182534;27;20381;-93
2022/07/11 09:28:07;;;;;;;7.47;2.90;;;;;;;29.73;31.72;98810.22;5146936;27;20039;-93
2022/07/11 09:30:39;;;;;;;5.93;3.05;;;;;;;29.84;31.02;98803.59;5146739;27;20039;-92
2022/07/11 09:33:06;;;;;;;5.07;2.85;;;;;;;30.05;31.06;98800.44;5148412;27;20055;-92
2022/07/11 09:35:35;;;;;;;5.35;3.28;;;;;;;29.88;31.56;98808.63;5147061;27;20080;-92
2022/07/11 09:38:03;;;;;;;6.07;2.97;;;;;;;29.86;30.55;98782.38;5148490;27;20027;-92
2022/07/11 09:40:28;;;;;;;5.78;2.75;;;;;;;30.05;29.67;98797.69;5150181;27;20039;-93
2022/07/11 09:42:57;;;;;;;4.75;2.78;;;;;;;30.21;30.25;98795.03;5147103;27;20035;-92
2022/07/11 09:45:24;;;;;;;4.63;2.90;;;;;;;30.17;29.91;98787.31;5138368;27;20046;-91
2022/07/11 09:47:51;;;;;;;5.17;2.87;;;;;;;30.35;29.32;98796.28;5144822;27;20123;-93
2022/07/11 09:50:18;;;;;;;4.00;2.70;;;;;;;30.26;29.69;98794.53;5146918;27;20067;-89
2022/07/11 09:52:58;;;;;;;5.20;2.78;;;;;;;30.41;30.26;98801.13;5143677;27;20031;-91
2022/07/11 09:55:24;;;;;;;5.57;3.03;;;;;;;30.49;29.82;98787.41;5146206;27;20060;-92
2022/07/11 09:57:50;;;;;;;3.92;3.10;;;;;;;30.57;29.62;98794.78;5144046;27;20399;-91
2022/07/11 10:00:17;;;;;;;5.15;3.00;;;;;;;30.36;29.76;98772.44;5144232;27;20038;-92
2022/07/11 10:02:44;;;;;;;4.65;3.25;;;;;;;29.91;30.39;98782.75;5146100;27;20043;-90
2022/07/11 10:05:10;;;;;;;5.80;3.10;;;;;;;29.87;31.24;98775.88;5147658;27;20035;-91
2022/07/11 10:07:36;;;;;;;5.60;3.08;;;;;;;30.14;30.48;98763.78;5149094;27;20122;-93
2022/07/11 10:10:04;;;;;;;4.75;2.90;;;;;;;30.38;30.12;98773.16;5140759;27;20929;-93
2022/07/11 10:12:32;;;;;;;4.55;2.90;;;;;;;30.59;29.67;98780.91;5149874;27;20429;-91
2022/07/11 10:15:01;;;;;;;5.28;2.72;;;;;;;30.66;30.10;98779.19;5142936;27;20391;-94
2022/07/11 10:17:43;;;;;;;5.05;2.92;;;;;;;30.17;29.33;98779.94;5151908;27;20058;-94
2022/07/11 10:20:17;;;;;;;4.03;2.92;;;;;;;29.88;29.81;98758.38;5151432;27;20568;-95
2022/07/11 10:22:53;;;;;;;4.57;2.80;;;;;;;30.12;30.29;98773.22;5148197;27;20049;-93
2022/07/11 10:25:25;;;;;;;4.32;2.90;;;;;;;30.37;30.17;98763.22;5146323;27;20051;-93
2022/07/11 10:28:05;;;;;;;5.70;2.83;;;;;;;30.47;29.88;98762.03;5120861;27;20042;-91
2022/07/11 10:30:43;;;;;;;6.40;3.42;;;;;;;30.84;29.81;98782.66;5129248;27;20043;-94
2022/07/11 10:33:10;;;;;;;;;;;;;;;30.57;29.11;98780.22;5130040;27;20111;-94
2022/07/11 10:35:40;;;;;;;3.78;3.10;;;;;;;30.39;29.57;98756.53;5117249;27;20433;-91
2022/07/11 10:38:06;;;;;;;4.70;2.70;;;;;;;30.68;29.48;98768.91;5114239;27;20042;-94
2022/07/11 10:40:44;;;;;;;4.97;3.00;;;;;;;30.74;28.67;98764.63;5113672;28;20068;-93
2022/07/11 10:43:11;;;;;;;6.57;2.92;;;;;;;30.89;27.82;98757.47;5112115;28;20084;-91
2022/07/11 10:45:53;;;;;;;7.72;2.97;;;;;;;31.04;29.12;98747.50;5112947;28;20048;-93
2022/07/11 10:48:21;;;;;;;5.88;2.97;;;;;;;31.24;28.67;98758.97;5111544;28;20058;-94
2022/07/11 10:50:53;;;;;;;4.30;2.72;;;;;;;31.32;27.77;98758.09;5113137;28;20043;-93
2022/07/11 10:53:22;;;;;;;4.68;3.00;;;;;;;31.45;27.94;98752.97;5113585;28;20048;-94
2022/07/11 10:56:03;;;;;;;4.78;2.90;;;;;;;31.02;28.09;98727.59;5115926;28;20126;-95
2022/07/11 10:58:30;;;;;;;5.68;2.90;;;;;;;31.10;27.26;98759.69;5116399;27;20048;-93
2022/07/11 11:01:09;;;;;;;3.97;2.75;;;;;;;30.93;26.92;98741.50;5117096;28;20067;-92
2022/07/11 11:03:36;;;;;;;3.30;2.63;;;;;;;31.07;26.44;98768.25;5112724;27;20101;-91
2022/07/11 11:06:03;;;;;;;5.47;2.90;;;;;;;30.59;27.40;98737.84;5114368;28;20612;-94
2022/07/11 11:08:46;;;;;;;4.25;2.72;;;;;;;30.27;26.43;98749.59;5114674;28;20103;-92
2022/07/11 11:11:36;;;;;;;4.05;2.80;;;;;;;30.50;28.56;98758.09;5112270;28;20115;-92
2022/07/11 11:14:19;;;;;;;6.40;3.30;;;;;;;30.94;27.67;98746.81;5112299;28;20032;-94
2022/07/11 11:16:45;;;;;;;3.85;2.80;;;;;;;31.17;26.58;98733.22;5114341;28;20031;-94
2022/07/11 11:19:44;;;;;;;3.67;2.80;;;;;;;30.79;26.29;98738.38;5119246;28;20095;-96
2022/07/11 11:22:14;;;;;;;4.90;2.95;;;;;;;30.95;26.52;98739.41;5115469;28;20032;-92
2022/07/11 11:24:42;;;;;;;4.97;3.17;;;;;;;30.48;26.78;98738.19;5116129;28;20054;-95
2022/07/11 11:27:16;;;;;;;5.00;3.20;;;;;;;30.57;26.84;98720.69;5115445;28;20130;-92
2022/07/11 11:29:42;;;;;;;4.28;2.88;;;;;;;30.78;27.08;98736.66;5112262;28;20067;-93
2022/07/11 11:32:08;;;;;;;4.35;2.83;;;;;;;30.88;26.81;98714.53;5114227;28;20067;-93
2022/07/11 11:34:34;;;;;;;4.40;2.80;;;;;;;30.82;26.90;98709.75;5114612;28;20039;-95
2022/07/11 11:37:01;;;;;;;4.40;3.20;;;;;;;30.72;26.59;98720.88;5114519;28;20062;-91
2022/07/11 11:39:34;;;;;;;3.53;2.90;;;;;;;30.80;27.00;98706.31;5112505;28;20040;-91
2022/07/11 11:42:04;;;;;;;4.70;2.75;;;;;;;31.24;26.70;98722.41;5111625;28;20062;-92
2022/07/11 11:44:30;;;;;;;4.30;2.83;;;;;;;31.38;26.29;98713.44;5109632;28;20392;-91
2022/07/11 11:46:56;;;;;;;3.72;3.10;;;;;;;31.34;27.07;98709.34;5111823;28;20515;-91
2022/07/11 11:49:22;;;;;;;5.55;3.08;;;;;;;30.92;26.77;98699.44;5112965;28;20059;-91